Time;durP1;ratioP1;P1;durP2;ratioP2;P2;SDS_P1;SDS_P2;PMS_P1;PMS_P2;Temp;Humidity;BMP_temperature;BMP_pressure;BME280_temperature;BME280_humidity;BME280_pressure;Samples;Min_cycle;Max_cycle;Signal;HPM_P1;HPM_P2
2023/04/03 00:01:01;;;;;;;9.70;3.40;;;;;;;0.78;68.43;101140.66;129915;1261;128926;-61
2023/04/03 00:04:05;;;;;;;8.10;3.00;;;;;;;0.73;68.15;101136.94;129713;1274;114721;-62
2023/04/03 00:07:07;;;;;;;11.60;3.10;;;;;;;0.69;68.63;101143.08;130060;1260;114740;-61
2023/04/03 00:10:09;;;;;;;8.90;3.70;;;;;;;0.66;69.06;101144.83;130319;1254;115425;-61
2023/04/03 00:13:12;;;;;;;9.00;3.20;;;;;;;0.64;68.61;101142.88;130327;1254;115179;-61
2023/04/03 00:16:14;;;;;;;8.80;3.80;;;;;;;0.60;69.01;101141.27;129927;1260;114786;-61
2023/04/03 00:19:17;;;;;;;11.60;3.50;;;;;;;0.57;69.08;101144.26;130286;1257;114721;-60
2023/04/03 00:22:19;;;;;;;10.50;3.10;;;;;;;0.54;68.97;101151.62;129964;1257;115344;-60
2023/04/03 00:25:21;;;;;;;15.30;3.40;;;;;;;0.51;69.06;101149.30;130034;1256;114709;-62
2023/04/03 00:28:25;;;;;;;13.50;3.90;;;;;;;0.48;69.19;101150.17;129969;1256;114722;-61
2023/04/03 00:31:27;;;;;;;10.70;3.30;;;;;;;0.45;69.45;101147.00;129765;1260;115593;-61
2023/04/03 00:34:29;;;;;;;10.80;3.50;;;;;;;0.41;69.41;101153.48;130230;1254;114703;-61
2023/04/03 00:37:32;;;;;;;12.00;3.10;;;;;;;0.38;69.34;101155.39;130374;1255;114708;-61
2023/04/03 00:40:42;;;;;;;9.30;3.30;;;;;;;0.35;69.64;101154.31;130359;1256;114719;-61
2023/04/03 00:43:45;;;;;;;10.40;3.60;;;;;;;0.32;69.79;101154.83;130302;1257;115156;-62
2023/04/03 00:46:47;;;;;;;12.70;3.70;;;;;;;0.29;69.58;101155.33;130205;1257;115376;-62
2023/04/03 00:49:50;;;;;;;7.20;3.60;;;;;;;0.26;69.96;101153.20;130394;1254;114700;-62
2023/04/03 00:52:54;;;;;;;8.20;3.30;;;;;;;0.24;69.84;101156.70;130461;1256;114763;-62
2023/04/03 00:55:57;;;;;;;10.50;4.10;;;;;;;0.20;69.93;101156.16;129895;1262;114884;-62
2023/04/03 00:59:02;;;;;;;9.00;3.30;;;;;;;0.18;70.14;101156.84;130413;1256;115170;-61
2023/04/03 01:02:04;;;;;;;12.40;3.80;;;;;;;0.15;70.06;101157.89;129937;1276;115458;-62
2023/04/03 01:05:07;;;;;;;12.90;3.90;;;;;;;0.13;70.14;101163.30;130305;1267;115381;-62
2023/04/03 01:08:10;;;;;;;9.10;3.10;;;;;;;0.12;70.43;101171.20;130375;1256;114702;-62
2023/04/03 01:11:12;;;;;;;11.10;3.50;;;;;;;0.10;70.43;101170.83;130234;1253;114753;-62
2023/04/03 01:14:14;;;;;;;12.30;3.60;;;;;;;0.08;70.62;101172.05;130436;1269;114797;-62
2023/04/03 01:17:44;;;;;;;9.80;3.10;;;;;;;0.07;70.49;101172.74;130470;1254;114718;-62
2023/04/03 01:21:07;;;;;;;14.50;4.10;;;;;;;0.08;70.64;101177.32;130301;1257;115243;-63
2023/04/03 01:24:31;;;;;;;12.10;3.30;;;;;;;0.08;70.84;101175.55;130308;1254;114692;-63
2023/04/03 01:27:33;;;;;;;11.70;3.70;;;;;;;0.08;70.90;101175.74;130523;1259;114814;-62
2023/04/03 01:30:41;;;;;;;11.90;3.30;;;;;;;0.09;71.03;101177.32;130342;1256;115166;-62
2023/04/03 01:33:44;;;;;;;6.40;3.00;;;;;;;0.09;71.13;101179.42;130272;1256;127946;-61
2023/04/03 01:36:46;;;;;;;9.20;3.00;;;;;;;0.10;71.20;101179.60;130014;1256;114743;-62
2023/04/03 01:39:49;;;;;;;10.60;3.40;;;;;;;0.08;71.16;101182.58;130401;1254;114819;-61
2023/04/03 01:42:51;;;;;;;7.70;2.80;;;;;;;0.08;71.17;101182.23;130513;1256;114795;-63
2023/04/03 01:45:54;;;;;;;13.60;3.20;;;;;;;0.05;71.31;101186.44;130390;1257;114718;-62
2023/04/03 01:48:56;;;;;;;11.00;3.50;;;;;;;0.03;71.37;101187.46;130095;1259;114834;-63
2023/04/03 01:51:59;;;;;;;13.90;3.30;;;;;;;0.01;71.39;101192.88;130342;1256;114714;-61
2023/04/03 01:55:01;;;;;;;13.00;4.60;;;;;;;-0.02;71.51;101197.09;130430;1257;114788;-60
2023/04/03 01:58:03;;;;;;;15.10;4.90;;;;;;;-0.05;71.59;101193.37;130126;1256;115298;-62
2023/04/03 02:01:06;;;;;;;10.10;3.60;;;;;;;-0.07;71.65;101196.50;130051;1267;114632;-63
2023/04/03 02:04:08;;;;;;;7.70;3.00;;;;;;;-0.08;71.84;101198.78;130405;1272;114820;-62
2023/04/03 02:07:10;;;;;;;10.30;3.10;;;;;;;-0.10;71.97;101198.61;130358;1276;114718;-61
2023/04/03 02:10:13;;;;;;;11.50;3.50;;;;;;;-0.12;72.04;101196.98;130052;1276;115096;-65
2023/04/03 02:13:16;;;;;;;11.30;3.90;;;;;;;-0.13;72.08;101202.61;130299;1257;114768;-62
2023/04/03 02:16:18;;;;;;;10.60;3.30;;;;;;;-0.15;72.22;101200.30;130416;1264;114937;-66
2023/04/03 02:19:20;;;;;;;13.20;3.20;;;;;;;-0.19;72.21;101204.67;130389;1256;114835;-64
2023/04/03 02:22:22;;;;;;;12.90;3.00;;;;;;;-0.23;72.22;101204.27;129748;1260;114959;-63
2023/04/03 02:25:24;;;;;;;9.80;3.00;;;;;;;-0.28;72.42;101207.02;130253;1258;115406;-62
2023/04/03 02:28:26;;;;;;;11.50;3.30;;;;;;;-0.34;72.65;101207.67;130363;1257;114715;-66
2023/04/03 02:31:31;;;;;;;8.20;2.90;;;;;;;-0.38;72.55;101210.25;130002;1262;114789;-64
2023/04/03 02:34:33;;;;;;;;;;;;;;;-0.44;72.61;101209.67;130313;1277;128859;-70
2023/04/03 02:37:36;;;;;;;8.60;3.60;;;;;;;-0.51;72.84;101213.65;130247;1267;114753;-69
2023/04/03 02:40:38;;;;;;;15.40;3.40;;;;;;;-0.56;72.95;101222.53;130337;1253;115173;-68
2023/04/03 02:43:40;;;;;;;10.30;3.80;;;;;;;-0.62;73.15;101221.25;130393;1253;115432;-69
2023/04/03 02:46:42;;;;;;;16.50;4.30;;;;;;;-0.66;73.23;101226.27;130439;1256;115831;-63
2023/04/03 02:49:45;;;;;;;12.90;3.50;;;;;;;-0.69;73.47;101226.07;130395;1272;115208;-69
2023/04/03 02:52:47;;;;;;;13.00;4.10;;;;;;;-0.74;73.50;101229.34;129978;1254;114718;-66
2023/04/03 02:55:50;;;;;;;13.40;3.40;;;;;;;-0.77;73.58;101236.69;130271;1256;114705;-61
2023/04/03 02:58:52;;;;;;;16.10;4.30;;;;;;;-0.79;73.64;101237.52;130330;1273;115305;-61
2023/04/03 03:01:55;;;;;;;14.30;5.80;;;;;;;-0.82;73.97;101240.30;129953;1260;116689;-61
2023/04/03 03:04:57;;;;;;;14.20;3.80;;;;;;;-0.83;74.03;101241.88;130251;1257;114918;-62
2023/04/03 03:07:59;;;;;;;12.20;3.90;;;;;;;-0.85;74.00;101243.42;129942;1273;114721;-61
2023/04/03 03:11:02;;;;;;;13.80;4.70;;;;;;;-0.87;74.13;101237.95;129969;1276;114718;-60
2023/04/03 03:14:04;;;;;;;11.50;3.40;;;;;;;-0.89;74.22;101242.66;130026;1256;115205;-61
2023/04/03 03:17:06;;;;;;;12.50;3.70;;;;;;;-0.93;74.13;101242.79;130343;1258;114740;-61
2023/04/03 03:20:09;;;;;;;12.20;3.20;;;;;;;-0.97;74.01;101242.04;130335;1256;115282;-62
2023/04/03 03:23:11;;;;;;;15.60;4.60;;;;;;;-1.02;74.33;101237.77;130142;1259;116385;-61
2023/04/03 03:26:16;;;;;;;10.10;4.20;;;;;;;-1.05;74.73;101234.91;130323;1256;115202;-61
2023/04/03 03:29:18;;;;;;;;;;;;;;;-1.09;74.46;101239.79;130161;1254;115077;-61
2023/04/03 03:32:20;;;;;;;10.10;4.30;;;;;;;-1.14;74.92;101243.56;130352;1256;114716;-61
2023/04/03 03:35:23;;;;;;;13.20;3.70;;;;;;;-1.17;74.73;101248.77;130107;1254;114850;-62
2023/04/03 03:38:25;;;;;;;8.20;3.40;;;;;;;-1.20;75.14;101252.06;129775;1276;128045;-62
2023/04/03 03:41:28;;;;;;;14.20;3.80;;;;;;;-1.24;75.19;101255.70;130018;1272;114756;-63
2023/04/03 03:44:30;;;;;;;16.20;4.10;;;;;;;-1.27;75.13;101254.08;130492;1256;115115;-61
2023/04/03 03:47:32;;;;;;;22.10;6.40;;;;;;;-1.29;75.46;101256.14;130072;1256;114753;-62
2023/04/03 03:50:35;;;;;;;10.80;4.60;;;;;;;-1.31;75.45;101258.75;130125;1256;114968;-63
2023/04/03 03:53:37;;;;;;;21.00;6.70;;;;;;;-1.34;75.50;101259.41;130271;1257;114867;-67
2023/04/03 03:56:40;;;;;;;17.20;5.90;;;;;;;-1.37;76.06;101260.94;130001;1253;114816;-62
2023/04/03 03:59:44;;;;;;;13.30;4.80;;;;;;;-1.39;75.86;101265.11;129854;1261;127841;-64
2023/04/03 04:02:46;;;;;;;18.40;5.20;;;;;;;-1.41;75.76;101260.70;129993;1261;114836;-64
2023/04/03 04:05:48;;;;;;;15.00;5.00;;;;;;;-1.44;76.04;101264.17;130450;1253;115164;-61
2023/04/03 04:08:51;;;;;;;15.60;5.30;;;;;;;-1.45;75.87;101266.26;129978;1256;114762;-61
2023/04/03 04:11:53;;;;;;;15.00;5.10;;;;;;;-1.47;76.07;101269.02;130345;1256;114711;-61
2023/04/03 04:14:55;;;;;;;31.10;11.80;;;;;;;-1.49;76.24;101270.92;130291;1254;114760;-67
2023/04/03 04:17:57;;;;;;;27.00;11.20;;;;;;;-1.50;76.38;101271.94;130273;1254;114743;-66
2023/04/03 04:21:00;;;;;;;23.30;9.40;;;;;;;-1.53;76.05;101275.06;130392;1256;114872;-67
2023/04/03 04:24:02;;;;;;;19.20;5.60;;;;;;;-1.54;76.68;101276.97;130353;1256;114801;-67
2023/04/03 04:27:04;;;;;;;10.30;5.60;;;;;;;-1.55;76.19;101280.29;130408;1254;114823;-67
2023/04/03 04:30:07;;;;;;;11.30;5.50;;;;;;;-1.57;76.81;101288.14;129988;1257;114693;-68
2023/04/03 04:33:09;;;;;;;10.90;4.80;;;;;;;-1.57;76.22;101289.89;130372;1254;114743;-68
2023/04/03 04:36:11;;;;;;;16.90;5.50;;;;;;;-1.57;76.84;101296.89;130328;1254;114769;-69
2023/04/03 04:39:14;;;;;;;14.60;5.00;;;;;;;-1.58;76.66;101301.63;130468;1256;114728;-69
2023/04/03 04:42:16;;;;;;;40.00;17.60;;;;;;;-1.59;76.77;101305.81;129884;1254;128185;-64
2023/04/03 04:45:18;;;;;;;16.20;6.30;;;;;;;-1.58;76.71;101310.88;130408;1256;114995;-62
2023/04/03 04:48:20;;;;;;;21.50;8.60;;;;;;;-1.58;76.97;101313.70;130548;1256;115312;-61
2023/04/03 04:51:22;;;;;;;25.10;9.90;;;;;;;-1.56;76.64;101317.75;130316;1259;114815;-61
2023/04/03 04:54:25;;;;;;;23.40;7.60;;;;;;;-1.55;76.73;101323.02;129980;1257;114712;-63
2023/04/03 04:57:27;;;;;;;17.50;5.60;;;;;;;-1.53;77.03;101321.66;130466;1256;114638;-62
2023/04/03 05:00:29;;;;;;;15.90;6.90;;;;;;;-1.50;77.10;101326.61;129857;1256;114828;-61
2023/04/03 05:03:31;;;;;;;27.70;7.60;;;;;;;-1.48;77.53;101324.90;130259;1254;114891;-62
2023/04/03 05:06:34;;;;;;;19.70;6.70;;;;;;;-1.45;77.21;101323.00;130522;1259;114746;-61
2023/04/03 05:09:36;;;;;;;15.10;5.00;;;;;;;-1.41;76.97;101322.04;130393;1253;114686;-61
2023/04/03 05:12:39;;;;;;;18.30;4.80;;;;;;;-1.36;77.09;101325.08;130371;1260;114902;-62
2023/04/03 05:15:41;;;;;;;11.90;3.80;;;;;;;-1.31;77.23;101326.38;130393;1257;114862;-61
2023/04/03 05:18:43;;;;;;;14.00;3.80;;;;;;;-1.27;77.08;101331.90;130259;1256;114715;-62
2023/04/03 05:21:46;;;;;;;12.80;3.60;;;;;;;-1.22;77.27;101339.48;130208;1254;115292;-62
2023/04/03 05:24:48;;;;;;;12.50;4.00;;;;;;;-1.16;77.37;101345.90;130248;1257;114776;-64
2023/04/03 05:27:50;;;;;;;10.00;3.60;;;;;;;-1.11;77.03;101343.00;130297;1256;114775;-62
2023/04/03 05:30:55;;;;;;;12.50;3.90;;;;;;;-1.05;77.32;101345.37;129801;1276;114899;-62
2023/04/03 05:33:58;;;;;;;7.70;2.70;;;;;;;-0.98;76.94;101344.77;130347;1254;114794;-62
2023/04/03 05:37:00;;;;;;;17.10;5.50;;;;;;;-0.89;77.10;101349.99;130261;1256;114637;-61
2023/04/03 05:40:04;;;;;;;11.90;4.00;;;;;;;-0.80;77.07;101348.54;130329;1256;115055;-62
2023/04/03 05:43:06;;;;;;;9.50;3.80;;;;;;;-0.69;77.03;101350.44;130318;1256;115318;-62
2023/04/03 05:46:14;;;;;;;11.20;3.20;;;;;;;-0.59;76.98;101352.33;130452;1256;114775;-62
2023/04/03 05:49:16;;;;;;;11.70;3.50;;;;;;;-0.49;76.92;101352.99;130436;1256;114782;-62
2023/04/03 05:52:23;;;;;;;16.80;4.80;;;;;;;-0.37;76.92;101353.48;130240;1270;114706;-62
2023/04/03 05:55:26;;;;;;;12.00;3.10;;;;;;;-0.27;76.56;101351.51;129983;1254;114783;-63
2023/04/03 05:58:28;;;;;;;11.60;3.80;;;;;;;-0.19;76.62;101355.64;130266;1254;114791;-67
2023/04/03 06:01:30;;;;;;;8.10;3.70;;;;;;;-0.07;76.51;101357.70;130324;1256;114706;-68
2023/04/03 06:04:32;;;;;;;15.90;4.00;;;;;;;0.08;76.47;101358.05;130371;1254;114770;-64
2023/04/03 06:07:35;;;;;;;14.30;4.20;;;;;;;0.22;76.43;101356.96;130396;1269;114688;-65
2023/04/03 06:10:37;;;;;;;12.60;4.70;;;;;;;0.33;76.02;101358.65;129800;1256;114713;-65
2023/04/03 06:13:40;;;;;;;9.30;4.00;;;;;;;0.42;75.84;101357.86;130339;1256;115322;-66
2023/04/03 06:16:43;;;;;;;16.30;6.60;;;;;;;0.55;75.83;101358.49;130386;1256;115151;-65
2023/04/03 06:19:47;;;;;;;22.70;7.20;;;;;;;0.74;75.49;101363.23;129855;1252;129316;-63
2023/04/03 06:22:50;;;;;;;16.40;6.40;;;;;;;0.98;75.37;101364.64;129877;1257;114817;-64
2023/04/03 06:25:53;;;;;;;20.70;7.70;;;;;;;1.30;75.48;101363.63;130320;1257;114795;-63
2023/04/03 06:28:55;;;;;;;15.00;6.10;;;;;;;1.66;74.72;101368.38;129952;1272;115416;-65
2023/04/03 06:31:58;;;;;;;12.00;4.80;;;;;;;1.95;74.38;101365.67;129768;1254;114767;-64
2023/04/03 06:35:00;;;;;;;9.70;4.10;;;;;;;2.11;73.09;101369.25;130356;1256;114686;-64
2023/04/03 06:38:07;;;;;;;11.40;5.00;;;;;;;2.13;73.12;101366.44;130275;1264;114706;-64
2023/04/03 06:41:09;;;;;;;12.10;4.30;;;;;;;2.35;73.26;101365.24;129787;1262;114803;-66
2023/04/03 06:44:13;;;;;;;7.60;3.70;;;;;;;2.60;72.77;101370.21;130255;1256;115291;-63
2023/04/03 06:47:16;;;;;;;11.10;3.70;;;;;;;2.75;72.37;101369.69;130340;1257;114693;-66
2023/04/03 06:50:18;;;;;;;14.30;4.60;;;;;;;3.08;72.53;101372.13;130400;1254;114696;-64
2023/04/03 06:53:21;;;;;;;11.90;6.40;;;;;;;3.41;72.08;101375.60;130374;1254;114720;-64
2023/04/03 06:56:24;;;;;;;12.70;4.00;;;;;;;3.56;71.21;101381.92;130188;1260;127572;-66
2023/04/03 06:59:27;;;;;;;13.90;5.00;;;;;;;3.64;70.12;101385.42;130164;1253;115135;-63
2023/04/03 07:02:29;;;;;;;15.40;6.80;;;;;;;3.55;69.17;101391.09;130273;1273;114710;-63
2023/04/03 07:05:31;;;;;;;17.10;7.40;;;;;;;3.47;69.60;101393.77;130430;1252;114753;-67
2023/04/03 07:08:33;;;;;;;13.50;6.00;;;;;;;3.44;68.57;101398.55;130340;1256;114722;-66
2023/04/03 07:11:36;;;;;;;12.80;4.50;;;;;;;3.42;68.92;101401.55;130326;1269;114641;-66
2023/04/03 07:14:38;;;;;;;12.40;4.20;;;;;;;3.63;69.21;101402.21;130290;1256;115168;-63
2023/04/03 07:17:40;;;;;;;10.40;4.80;;;;;;;3.79;68.63;101400.04;129875;1256;114753;-63
2023/04/03 07:20:43;;;;;;;12.30;4.30;;;;;;;3.80;68.07;101404.45;130021;1259;115217;-63
2023/04/03 07:23:45;;;;;;;10.90;5.10;;;;;;;3.77;67.71;101406.76;130088;1256;114765;-62
2023/04/03 07:26:52;;;;;;;7.60;3.90;;;;;;;3.82;67.95;101407.80;129855;1254;114795;-65
2023/04/03 07:29:55;;;;;;;8.10;3.70;;;;;;;3.92;66.68;101411.30;130554;1257;114714;-64
2023/04/03 07:32:58;;;;;;;9.00;4.00;;;;;;;4.14;68.01;101411.20;129989;1276;128915;-69
2023/04/03 07:36:01;;;;;;;10.00;5.20;;;;;;;4.54;68.26;101410.61;130386;1257;115151;-66
2023/04/03 07:39:03;;;;;;;9.30;4.60;;;;;;;4.83;67.64;101410.05;130402;1256;114702;-67
2023/04/03 07:42:05;;;;;;;12.10;4.70;;;;;;;5.04;66.97;101414.84;130385;1276;115364;-65
2023/04/03 07:45:08;;;;;;;11.50;3.80;;;;;;;5.31;66.33;101411.05;130411;1254;114708;-65
2023/04/03 07:48:11;;;;;;;5.70;3.00;;;;;;;5.75;65.71;101411.11;130320;1269;241656;-66
2023/04/03 07:51:13;;;;;;;9.30;3.80;;;;;;;6.04;64.15;101410.07;130440;1256;114715;-65
2023/04/03 07:54:15;;;;;;;7.00;3.10;;;;;;;6.34;63.74;101408.09;130637;1254;115434;-65
2023/04/03 07:57:17;;;;;;;9.50;3.60;;;;;;;6.80;64.20;101405.45;130237;1269;115261;-65
2023/04/03 08:00:19;;;;;;;8.30;3.10;;;;;;;7.14;63.79;101402.05;130367;1256;114712;-66
2023/04/03 08:03:22;;;;;;;8.30;4.00;;;;;;;7.53;63.61;101402.77;130457;1258;114771;-66
2023/04/03 08:06:25;;;;;;;11.20;3.20;;;;;;;7.93;62.66;101405.69;130453;1254;115103;-65
2023/04/03 08:09:27;;;;;;;7.10;3.70;;;;;;;8.09;60.54;101403.23;130488;1254;114712;-64
2023/04/03 08:12:29;;;;;;;7.80;3.10;;;;;;;8.12;60.95;101401.92;130620;1254;115358;-65
2023/04/03 08:15:32;;;;;;;9.00;4.80;;;;;;;8.33;59.80;101403.59;130204;1256;128825;-64
2023/04/03 08:18:34;;;;;;;10.60;3.70;;;;;;;8.34;59.65;101400.19;130467;1256;114704;-64
2023/04/03 08:21:36;;;;;;;8.20;4.40;;;;;;;8.45;59.22;101398.00;130543;1272;115061;-65
2023/04/03 08:24:38;;;;;;;7.20;3.20;;;;;;;8.40;57.75;101401.67;130564;1257;114686;-66
2023/04/03 08:27:40;;;;;;;7.80;3.70;;;;;;;8.51;58.44;101399.66;130471;1256;114761;-63
2023/04/03 08:30:43;;;;;;;16.80;6.20;;;;;;;8.63;57.29;101392.42;130458;1256;114977;-64
2023/04/03 08:33:46;;;;;;;8.40;3.60;;;;;;;8.57;57.14;101390.81;130337;1257;114704;-64
2023/04/03 08:36:48;;;;;;;7.30;3.10;;;;;;;8.62;57.91;101392.63;130367;1256;115466;-67
2023/04/03 08:39:50;;;;;;;12.10;5.10;;;;;;;8.29;57.69;101393.17;130412;1264;114691;-68
2023/04/03 08:42:56;;;;;;;9.50;4.60;;;;;;;8.15;58.11;101393.31;130228;1254;114802;-68
2023/04/03 08:46:01;;;;;;;9.30;4.00;;;;;;;7.84;55.20;101397.34;130129;1254;114866;-67
2023/04/03 08:49:03;;;;;;;7.30;3.50;;;;;;;7.27;54.85;101404.83;130120;1254;114686;-71
2023/04/03 08:52:12;;;;;;;6.40;3.00;;;;;;;6.76;54.01;101410.31;130349;1259;114842;-68
2023/04/03 08:55:43;;;;;;;7.10;2.50;;;;;;;6.51;54.05;101403.77;130086;1256;116466;-69
2023/04/03 08:59:05;;;;;;;7.10;3.70;;;;;;;6.30;54.87;101402.66;130292;1256;114826;-67
2023/04/03 09:02:40;;;;;;;6.30;2.80;;;;;;;6.36;55.67;101398.31;130276;1258;115071;-70
2023/04/03 09:05:51;;;;;;;6.10;2.90;;;;;;;6.26;53.05;101406.77;130048;1263;114874;-65
2023/04/03 09:09:14;;;;;;;7.80;3.10;;;;;;;6.17;52.61;101404.77;130270;1272;127734;-68
2023/04/03 09:12:29;;;;;;;6.50;2.60;;;;;;;6.13;52.42;101400.22;130277;1256;115217;-70
2023/04/03 09:15:31;;;;;;;5.60;2.10;;;;;;;6.00;52.24;101404.98;130109;1257;114732;-68
2023/04/03 09:18:39;;;;;;;3.00;1.90;;;;;;;5.83;52.05;101406.40;130312;1257;115224;-67
2023/04/03 09:21:42;;;;;;;5.70;2.20;;;;;;;5.67;52.44;101401.98;130161;1252;114802;-72
2023/04/03 09:24:52;;;;;;;6.00;2.40;;;;;;;5.61;51.87;101406.48;130270;1258;115209;-71
2023/04/03 09:27:55;;;;;;;4.50;1.70;;;;;;;5.53;50.89;101408.16;130075;1261;115148;-70
2023/04/03 09:31:00;;;;;;;6.80;2.40;;;;;;;5.56;51.37;101403.53;130267;1260;114788;-68
2023/04/03 09:34:06;;;;;;;3.00;1.80;;;;;;;5.57;51.04;101409.55;130206;1262;114994;-68
2023/04/03 09:37:09;;;;;;;6.80;3.70;;;;;;;5.42;50.32;101407.75;130337;1264;115083;-69
2023/04/03 09:40:59;;;;;;;9.40;5.50;;;;;;;5.34;51.68;101405.54;130406;1270;114796;-69
2023/04/03 09:44:01;;;;;;;6.60;2.70;;;;;;;5.24;50.88;101401.20;130219;1266;115345;-69
2023/04/03 09:47:24;;;;;;;5.20;2.30;;;;;;;5.24;50.44;101414.12;130301;1259;115129;-70
2023/04/03 09:50:27;;;;;;;9.10;2.50;;;;;;;5.20;50.89;101413.45;130303;1256;115227;-68
2023/04/03 09:53:29;;;;;;;7.00;2.30;;;;;;;5.31;51.05;101408.39;130306;1276;115148;-69
2023/04/03 09:56:31;;;;;;;3.40;2.40;;;;;;;5.37;49.80;101410.29;130493;1256;114733;-70
2023/04/03 09:59:33;;;;;;;8.40;2.80;;;;;;;5.32;49.97;101407.33;130332;1254;114701;-71
2023/04/03 10:02:38;;;;;;;5.80;2.70;;;;;;;5.35;51.09;101408.89;130345;1256;115170;-70
2023/04/03 10:05:41;;;;;;;5.10;2.20;;;;;;;5.49;51.05;101412.12;130486;1254;114884;-72
2023/04/03 10:08:59;;;;;;;4.70;1.90;;;;;;;5.61;50.07;101410.91;130475;1257;114792;-66
2023/04/03 10:12:06;;;;;;;10.60;3.80;;;;;;;5.60;49.18;101402.60;130487;1257;114690;-68
2023/04/03 10:15:13;;;;;;;11.10;4.10;;;;;;;5.58;50.85;101403.15;130250;1260;127681;-70
2023/04/03 10:18:29;;;;;;;9.80;5.50;;;;;;;5.63;50.65;101404.70;130334;1264;115275;-70
2023/04/03 10:21:57;;;;;;;6.30;2.60;;;;;;;5.60;50.94;101400.48;130285;1257;114825;-65
2023/04/03 10:25:24;;;;;;;19.90;7.60;;;;;;;5.63;50.96;101404.52;130328;1254;114741;-65
2023/04/03 10:28:51;;;;;;;6.90;2.40;;;;;;;5.62;50.06;101410.73;130479;1268;114775;-63
2023/04/03 10:32:03;;;;;;;4.70;2.30;;;;;;;5.63;50.03;101404.52;129523;1276;128429;-62
2023/04/03 10:35:18;;;;;;;9.40;1.90;;;;;;;5.57;49.52;101406.52;130448;1262;115243;-63
2023/04/03 10:38:31;;;;;;;3.60;2.10;;;;;;;5.65;49.87;101395.27;130423;1260;115378;-66
2023/04/03 10:42:19;;;;;;;3.90;2.10;;;;;;;5.89;50.08;101391.08;130647;1257;114747;-66
2023/04/03 10:45:29;;;;;;;17.20;7.90;;;;;;;6.03;49.59;101392.18;129987;1262;114859;-64
2023/04/03 10:48:49;;;;;;;6.80;3.30;;;;;;;5.96;49.18;101395.29;129775;1265;127868;-66
2023/04/03 10:51:59;;;;;;;7.50;3.20;;;;;;;5.90;49.91;101394.44;130025;1265;114902;-66
2023/04/03 10:55:13;;;;;;;9.80;3.20;;;;;;;5.90;50.07;101390.20;130140;1262;114897;-64
2023/04/03 10:58:26;;;;;;;6.50;2.80;;;;;;;5.91;49.88;101390.72;129918;1265;114825;-65
2023/04/03 11:01:35;;;;;;;7.80;2.40;;;;;;;5.85;49.51;101394.50;129557;1281;114816;-65
2023/04/03 11:04:40;;;;;;;6.50;2.70;;;;;;;5.79;49.85;101399.19;129253;1281;127922;-65
2023/04/03 11:07:49;;;;;;;;;;;;;;;5.76;48.86;101399.75;129645;1262;114910;-66
2023/04/03 11:10:51;;;;;;;5.90;2.20;;;;;;;5.70;49.15;101387.95;129920;1262;115157;-65
2023/04/03 11:14:21;;;;;;;8.00;3.60;;;;;;;5.64;47.89;101388.39;130143;1281;114808;-66
2023/04/03 11:17:52;;;;;;;4.20;2.60;;;;;;;5.68;48.39;101393.29;130026;1262;115028;-67
2023/04/03 11:21:17;;;;;;;7.40;2.90;;;;;;;5.81;48.57;101385.70;129387;1260;128828;-67
2023/04/03 11:25:29;;;;;;;7.00;2.10;;;;;;;5.89;48.57;101376.73;132381;1250;114722;-68
2023/04/03 11:33:46;;;;;;;5.40;2.10;;;;;;;5.88;48.45;101382.41;128552;1276;114954;-71
2023/04/03 11:37:47;;;;;;;8.90;2.40;;;;;;;5.88;48.92;101378.14;128145;1284;114932;-72
2023/04/03 11:41:49;;;;;;;;;;;;;;;;;;;;;
2023/04/03 11:50:03;;;;;;;6.90;2.60;;;;;;;5.72;49.15;101376.92;126837;1292;114959;-73
2023/04/03 11:54:16;;;;;;;6.20;2.90;;;;;;;5.71;47.38;101377.66;126888;1292;114970;-72
2023/04/03 11:58:27;;;;;;;5.50;2.40;;;;;;;5.56;46.08;101370.39;126245;1311;114877;-71
2023/04/03 12:02:48;;;;;;;4.10;2.60;;;;;;;5.58;45.73;101370.72;126214;1316;129984;-74
2023/04/03 12:06:49;;;;;;;6.90;3.80;;;;;;;5.69;46.46;101370.23;125789;1304;115464;-68
2023/04/03 12:10:56;;;;;;;7.60;3.50;;;;;;;5.77;47.60;101367.48;126679;1310;115167;-74
2023/04/03 12:14:57;;;;;;;8.20;4.20;;;;;;;5.79;46.98;101369.41;126697;1292;114938;-71
2023/04/03 12:19:22;;;;;;;11.10;5.80;;;;;;;5.74;47.65;101365.76;126972;1286;115056;-73
2023/04/03 12:22:59;;;;;;;8.40;4.40;;;;;;;5.79;47.11;101359.67;127062;1304;129679;-73
2023/04/03 12:27:22;;;;;;;4.00;2.20;;;;;;;5.94;46.35;101356.28;126668;1291;115387;-73
2023/04/03 12:35:09;;;;;;;6.40;2.80;;;;;;;5.81;46.32;101360.34;126454;1312;114917;-74
2023/04/03 12:43:48;;;;;;;8.90;3.90;;;;;;;5.82;46.79;101357.50;127001;1289;129879;-72
2023/04/03 12:47:49;;;;;;;4.70;2.70;;;;;;;5.84;46.32;101355.17;127427;1285;115579;-73
2023/04/03 12:51:32;;;;;;;6.10;2.50;;;;;;;5.97;46.16;101353.06;126455;1298;115341;-73
2023/04/03 12:55:34;;;;;;;4.10;2.40;;;;;;;6.11;46.46;101357.88;126743;1300;114910;-74
2023/04/03 12:59:36;;;;;;;5.00;2.50;;;;;;;6.10;46.82;101358.41;126920;1288;114952;-72
2023/04/03 13:03:36;;;;;;;5.60;2.90;;;;;;;5.97;46.15;101361.21;127369;1300;128900;-72
2023/04/03 13:07:43;;;;;;;5.90;2.30;;;;;;;5.84;45.71;101353.39;127127;1288;115337;-69
2023/04/03 13:11:30;;;;;;;6.20;3.50;;;;;;;5.81;45.44;101350.24;126317;1288;114869;-72
2023/04/03 13:15:32;;;;;;;5.40;2.70;;;;;;;5.97;45.26;101347.91;126696;1293;115554;-73
2023/04/03 13:19:34;;;;;;;6.80;2.70;;;;;;;6.14;44.57;101339.89;126185;1317;114894;-72
2023/04/03 13:23:39;;;;;;;5.80;2.90;;;;;;;6.27;45.82;101338.27;125736;1319;130607;-73
2023/04/03 13:31:34;;;;;;;;;;;;;;;;;;;;;
2023/04/03 13:40:16;;;;;;;4.80;3.20;;;;;;;6.08;44.69;101341.76;125611;1304;638396;-70
2023/04/03 13:44:20;;;;;;;3.40;2.70;;;;;;;6.00;44.50;101344.50;127775;1292;128914;-72
2023/04/03 13:52:29;;;;;;;5.40;2.50;;;;;;;6.01;43.99;101351.77;121842;1301;5469786;-67
2023/04/03 13:56:36;;;;;;;;;;;;;;;;;;;;;
2023/04/03 14:08:41;;;;;;;5.30;2.80;;;;;;;5.89;42.91;101345.17;128349;1280;128243;-67
2023/04/03 14:12:04;;;;;;;;;;;;;;;;;;;;;
2023/04/03 14:15:48;;;;;;;;;;;;;;;;;;;;;
2023/04/03 14:19:07;;;;;;;4.70;2.70;;;;;;;5.97;44.36;101337.09;128195;1277;115262;-67
2023/04/03 14:22:53;;;;;;;5.00;2.60;;;;;;;6.08;44.25;101327.73;128883;1276;114922;-67
2023/04/03 14:26:18;;;;;;;3.90;2.40;;;;;;;6.15;43.77;101332.80;128785;1276;126971;-70
2023/04/03 14:30:06;;;;;;;4.50;2.60;;;;;;;6.11;42.19;101335.67;128792;1273;115183;-71
2023/04/03 14:33:20;;;;;;;3.80;2.50;;;;;;;5.98;42.22;101338.33;128498;1277;114833;-70
2023/04/03 14:36:52;;;;;;;8.90;3.00;;;;;;;5.86;43.08;101342.55;128862;1276;114897;-68
2023/04/03 14:40:03;;;;;;;6.70;2.80;;;;;;;5.81;42.73;101343.34;129351;1266;114961;-67
2023/04/03 14:43:27;;;;;;;;;;;;;;;;;;;;;
2023/04/03 14:50:25;;;;;;;9.70;2.90;;;;;;;5.71;41.90;101331.58;129169;1267;114823;-68
2023/04/03 14:53:35;;;;;;;7.20;3.70;;;;;;;5.62;41.78;101333.10;129429;1263;115263;-70
2023/04/03 14:57:16;;;;;;;6.70;3.50;;;;;;;5.62;42.52;101336.30;129437;1267;114678;-70
2023/04/03 15:00:26;;;;;;;6.30;2.70;;;;;;;5.61;43.05;101335.95;129338;1286;126616;-72
2023/04/03 15:03:59;;;;;;;;;;;;;;;;;;;;;
2023/04/03 15:07:04;;;;;;;4.80;2.20;;;;;;;5.63;43.14;101332.73;129375;1267;114772;-73
2023/04/03 15:10:31;;;;;;;6.80;3.20;;;;;;;5.62;43.49;101335.77;129420;1267;116542;-72
2023/04/03 15:13:37;;;;;;;11.10;3.50;;;;;;;5.54;42.26;101340.81;129440;1277;114707;-72
2023/04/03 15:16:57;;;;;;;10.00;3.70;;;;;;;5.44;42.74;101345.38;129477;1267;129064;-72
2023/04/03 15:20:41;;;;;;;;;;;;;;;;;;;;;
2023/04/03 15:24:04;;;;;;;6.20;3.10;;;;;;;5.18;42.51;101343.69;129278;1273;114799;-73
2023/04/03 15:27:38;;;;;;;8.00;3.40;;;;;;;5.17;43.54;101340.17;129133;1268;114960;-67
2023/04/03 15:30:50;;;;;;;4.80;2.70;;;;;;;5.23;43.68;101338.86;129019;1268;114951;-67
2023/04/03 15:34:12;;;;;;;8.50;3.20;;;;;;;5.23;43.28;101343.65;129001;1273;128919;-73
2023/04/03 15:37:33;;;;;;;;;;;;;;;;;;;;;
2023/04/03 15:41:15;;;;;;;8.40;3.50;;;;;;;5.09;43.76;101348.92;129103;1270;114822;-68